Time;durP1;ratioP1;P1;durP2;ratioP2;P2;SDS_P1;SDS_P2;PMS_P1;PMS_P2;Temp;Humidity;BMP_temperature;BMP_pressure;BME280_temperature;BME280_humidity;BME280_pressure;Samples;Min_cycle;Max_cycle;Signal;HPM_P1;HPM_P2
2022/05/25 00:00:04;;;;;;;5.68;1.10;;;10.60;99.90;;;;;;6351853;22;20090;-93
2022/05/25 00:05:16;;;;;;;2.45;0.93;;;10.60;99.90;;;;;;6253852;22;20035;-92
2022/05/25 00:07:42;;;;;;;1.10;0.73;;;10.60;99.90;;;;;;6303522;22;20007;-94
2022/05/25 00:10:08;;;;;;;4.68;1.08;;;10.60;99.90;;;;;;6284942;22;20060;-92
2022/05/25 00:12:34;;;;;;;2.33;1.05;;;10.60;99.90;;;;;;6284314;22;19999;-92
2022/05/25 00:14:59;;;;;;;3.55;1.05;;;10.70;99.90;;;;;;6314824;22;20437;-94
2022/05/25 00:17:25;;;;;;;1.48;0.88;;;10.70;99.90;;;;;;6310870;22;19995;-92
2022/05/25 00:20:00;;;;;;;3.67;1.65;;;10.80;99.90;;;;;;6310401;22;20084;-92
2022/05/25 00:22:28;;;;;;;2.60;0.90;;;10.80;99.90;;;;;;6310744;22;20074;-92
2022/05/25 00:24:59;;;;;;;3.72;0.90;;;10.90;99.90;;;;;;6310058;22;20000;-91
2022/05/25 00:27:25;;;;;;;4.03;1.13;;;10.90;99.90;;;;;;6283231;22;20007;-92
2022/05/25 00:29:51;;;;;;;2.30;0.95;;;10.90;99.90;;;;;;6283252;22;20011;-93
2022/05/25 00:32:16;;;;;;;6.35;1.17;;;10.90;99.90;;;;;;6283125;22;20007;-93
2022/05/25 00:34:42;;;;;;;4.20;1.20;;;10.90;99.90;;;;;;6283775;22;20018;-92
2022/05/25 00:37:08;;;;;;;5.45;1.20;;;11.00;99.90;;;;;;6286243;22;20021;-89
2022/05/25 00:39:33;;;;;;;1.65;1.00;;;11.00;99.90;;;;;;6284343;22;20395;-93
2022/05/25 00:42:02;;;;;;;4.22;1.40;;;11.00;99.90;;;;;;6309451;22;20075;-91
2022/05/25 00:44:28;;;;;;;3.33;1.05;;;11.00;99.90;;;;;;6282234;22;20082;-94
2022/05/25 00:46:54;;;;;;;5.03;1.20;;;11.00;99.90;;;;;;6309612;22;20003;-93
2022/05/25 00:49:32;;;;;;;3.80;0.73;;;11.00;99.90;;;;;;6282435;22;20322;-93
2022/05/25 00:52:11;;;;;;;3.78;1.20;;;10.90;99.90;;;;;;6282629;22;20011;-93
2022/05/25 00:54:48;;;;;;;6.40;1.33;;;10.90;99.90;;;;;;6310315;22;20004;-92
2022/05/25 00:57:21;;;;;;;2.97;1.02;;;10.90;99.90;;;;;;6283484;22;20000;-92
2022/05/25 01:00:10;;;;;;;4.25;1.20;;;10.90;99.90;;;;;;6283453;22;20003;-94
2022/05/25 01:02:41;;;;;;;1.60;1.10;;;10.90;99.90;;;;;;6283368;22;20007;-92
2022/05/25 01:05:08;;;;;;;4.93;0.93;;;10.90;99.90;;;;;;6311783;22;19995;-91
2022/05/25 01:07:33;;;;;;;0.90;0.77;;;10.90;99.90;;;;;;6317902;22;20015;-93
2022/05/25 01:10:08;;;;;;;3.30;0.80;;;10.90;99.90;;;;;;6327269;22;20047;-92
2022/05/25 01:12:45;;;;;;;4.47;1.50;;;10.90;99.90;;;;;;6294179;22;19999;-93
2022/05/25 01:15:23;;;;;;;3.25;1.25;;;11.00;99.90;;;;;;6282940;22;20033;-94
2022/05/25 01:18:07;;;;;;;5.53;1.48;;;11.00;99.90;;;;;;6282371;22;20334;-94
2022/05/25 01:20:44;;;;;;;2.08;1.00;;;11.00;99.90;;;;;;6281523;22;20014;-93
2022/05/25 01:23:47;;;;;;;3.15;0.90;;;11.00;99.90;;;;;;6281837;22;20004;-94
2022/05/25 01:26:48;;;;;;;3.90;1.50;;;11.10;99.90;;;;;;6308553;22;20049;-93
2022/05/25 01:29:52;;;;;;;4.63;1.10;;;11.00;99.90;;;;;;6281167;22;20010;-94
2022/05/25 01:32:42;;;;;;;4.70;1.05;;;11.00;99.90;;;;;;6279920;22;19995;-93
2022/05/25 01:35:43;;;;;;;1.77;0.88;;;11.00;99.90;;;;;;6283510;22;20015;-93
2022/05/25 01:38:11;;;;;;;6.63;0.88;;;11.00;99.90;;;;;;6280516;22;20007;-94
2022/05/25 01:40:58;;;;;;;3.08;0.85;;;11.00;99.90;;;;;;6283708;22;19999;-94
2022/05/25 01:43:31;;;;;;;6.70;1.08;;;11.00;99.90;;;;;;6296033;22;20063;-93
2022/05/25 01:46:03;;;;;;;2.30;0.77;;;11.00;99.90;;;;;;6324134;22;20019;-94
2022/05/25 01:48:33;;;;;;;4.45;0.95;;;11.00;99.90;;;;;;6291189;22;19999;-94
2022/05/25 01:51:08;;;;;;;5.10;1.35;;;11.00;99.90;;;;;;6291570;22;20007;-91
2022/05/25 01:53:43;;;;;;;4.63;1.25;;;11.10;99.90;;;;;;6288299;22;20029;-93
2022/05/25 01:56:11;;;;;;;4.07;1.02;;;11.10;99.90;;;;;;6314539;22;19999;-96
2022/05/25 01:58:42;;;;;;;3.40;1.30;;;11.10;99.90;;;;;;6282737;22;20011;-92
2022/05/25 02:01:09;;;;;;;4.57;2.13;;;11.10;99.90;;;;;;6282825;22;20042;-92
2022/05/25 02:07:01;;;;;;;3.55;1.10;;;11.10;99.90;;;;;;6307895;22;20453;-93
2022/05/25 02:09:48;;;;;;;2.58;0.95;;;11.00;99.90;;;;;;6280178;22;20098;-93
2022/05/25 02:12:25;;;;;;;3.83;0.95;;;11.00;99.90;;;;;;6306275;22;20022;-92
2022/05/25 02:15:28;;;;;;;3.85;1.00;;;11.00;99.90;;;;;;6307179;22;20426;-93
2022/05/25 02:18:11;;;;;;;6.28;1.35;;;11.00;99.90;;;;;;6305820;22;20007;-92
2022/05/25 02:20:54;;;;;;;2.65;1.23;;;11.00;99.90;;;;;;6280777;22;20007;-92
2022/05/25 02:23:29;;;;;;;7.07;1.75;;;11.00;99.90;;;;;;6308055;22;19999;-93
2022/05/25 02:26:12;;;;;;;3.90;1.08;;;11.00;99.90;;;;;;6298870;22;20007;-91
2022/05/25 02:28:45;;;;;;;6.68;1.38;;;11.00;99.90;;;;;;6298580;22;20056;-91
2022/05/25 02:31:17;;;;;;;3.65;1.27;;;11.00;99.90;;;;;;6284328;22;20394;-92
2022/05/25 02:33:48;;;;;;;5.55;1.00;;;10.90;99.90;;;;;;6279873;22;20042;-93
2022/05/25 02:36:15;;;;;;;3.95;1.05;;;11.00;99.90;;;;;;6279905;22;20102;-92
2022/05/25 02:38:43;;;;;;;9.95;1.48;;;11.00;99.90;;;;;;6279975;22;20150;-93
2022/05/25 02:41:27;;;;;;;2.17;1.25;;;11.00;99.90;;;;;;6281515;22;20011;-95
2022/05/25 02:43:53;;;;;;;2.15;1.10;;;10.90;99.90;;;;;;6281382;22;20056;-92
2022/05/25 02:46:19;;;;;;;2.25;1.17;;;10.90;99.90;;;;;;6281751;22;20082;-91
2022/05/25 02:48:44;;;;;;;4.97;1.20;;;11.00;99.90;;;;;;6281803;22;20011;-94
2022/05/25 02:51:10;;;;;;;2.53;1.05;;;11.00;99.90;;;;;;6309645;22;20071;-94
2022/05/25 02:53:36;;;;;;;2.70;1.10;;;11.00;99.90;;;;;;6282962;22;20011;-95
2022/05/25 02:56:02;;;;;;;1.60;0.90;;;11.00;99.90;;;;;;6287525;22;20057;-96
2022/05/25 02:58:28;;;;;;;3.53;1.10;;;11.00;99.90;;;;;;6285655;22;20014;-93
2022/05/25 03:00:57;;;;;;;6.93;2.20;;;11.00;99.90;;;;;;6285225;22;20011;-95
2022/05/25 03:03:23;;;;;;;2.65;1.08;;;10.90;99.90;;;;;;6307356;22;20019;-93
2022/05/25 03:05:49;;;;;;;6.63;1.40;;;10.90;99.90;;;;;;6291628;22;20040;-96
2022/05/25 03:08:14;;;;;;;2.47;1.10;;;10.90;99.90;;;;;;6313463;22;20007;-93
2022/05/25 03:10:41;;;;;;;4.93;1.33;;;10.90;99.90;;;;;;6315484;22;20093;-94
2022/05/25 03:13:08;;;;;;;1.42;0.80;;;10.90;99.90;;;;;;6312838;22;20018;-92
2022/05/25 03:15:34;;;;;;;3.15;1.00;;;10.90;99.90;;;;;;6313730;22;20007;-94
2022/05/25 03:17:59;;;;;;;2.92;1.13;;;10.90;99.90;;;;;;6313038;22;20452;-95
2022/05/25 03:20:25;;;;;;;3.67;1.05;;;10.90;99.90;;;;;;6314092;22;20105;-93
2022/05/25 03:22:51;;;;;;;2.15;0.85;;;10.80;99.90;;;;;;6312981;22;20083;-93
2022/05/25 03:25:16;;;;;;;5.22;1.88;;;10.80;99.90;;;;;;6341536;22;20006;-94
2022/05/25 03:27:44;;;;;;;2.35;1.02;;;10.80;99.90;;;;;;6313759;22;20003;-95
2022/05/25 03:30:11;;;;;;;1.13;0.90;;;10.80;99.90;;;;;;6340704;22;20005;-94
2022/05/25 03:32:37;;;;;;;5.72;1.20;;;10.80;99.90;;;;;;6313654;22;20351;-94
2022/05/25 03:35:03;;;;;;;5.97;1.23;;;10.80;99.90;;;;;;6313126;22;20014;-95
2022/05/25 03:37:29;;;;;;;3.17;1.10;;;10.80;99.90;;;;;;6313298;22;20337;-93
2022/05/25 03:39:55;;;;;;;2.55;0.90;;;10.80;99.90;;;;;;6314409;22;20034;-94
2022/05/25 03:42:22;;;;;;;5.85;0.80;;;10.70;99.90;;;;;;6341343;22;19995;-92
2022/05/25 03:44:48;;;;;;;5.15;1.42;;;10.80;99.90;;;;;;6313448;22;20040;-93
2022/05/25 03:47:14;;;;;;;3.03;0.88;;;10.70;99.90;;;;;;6312626;22;20003;-93
2022/05/25 03:49:40;;;;;;;3.90;1.10;;;10.80;99.90;;;;;;6312299;22;20002;-93
2022/05/25 03:52:06;;;;;;;7.32;1.23;;;10.80;99.90;;;;;;6312138;22;20002;-93
2022/05/25 03:54:35;;;;;;;3.80;1.15;;;10.80;99.90;;;;;;6311859;22;20034;-93
2022/05/25 03:57:01;;;;;;;2.25;0.95;;;10.80;99.90;;;;;;6312121;22;20060;-93
2022/05/25 03:59:26;;;;;;;4.32;1.13;;;10.80;99.90;;;;;;6312312;22;20435;-90
2022/05/25 04:01:52;;;;;;;5.47;1.13;;;10.70;99.90;;;;;;6312058;22;20089;-90
2022/05/25 04:04:18;;;;;;;3.50;0.98;;;10.70;99.90;;;;;;6312193;22;20021;-94
2022/05/25 04:06:43;;;;;;;1.60;0.90;;;10.70;99.90;;;;;;6311944;22;20011;-94
2022/05/25 04:09:10;;;;;;;3.35;1.13;;;10.80;99.90;;;;;;6339370;22;20029;-91
2022/05/25 04:11:37;;;;;;;1.42;0.93;;;10.80;99.90;;;;;;6313566;22;19999;-93
2022/05/25 04:14:04;;;;;;;3.72;1.30;;;10.80;99.90;;;;;;6318483;22;20022;-91
2022/05/25 04:16:31;;;;;;;7.00;1.63;;;10.80;99.90;;;;;;6316352;22;20003;-92
2022/05/25 04:18:57;;;;;;;6.72;1.60;;;10.80;99.90;;;;;;6316739;22;20003;-94
2022/05/25 04:21:23;;;;;;;3.33;1.35;;;10.80;99.90;;;;;;6314160;22;20005;-93
2022/05/25 04:23:48;;;;;;;3.95;1.48;;;10.80;99.90;;;;;;6313810;22;20045;-94
2022/05/25 04:26:14;;;;;;;2.90;1.60;;;10.80;99.90;;;;;;6313372;22;20014;-94
2022/05/25 04:28:40;;;;;;;3.45;1.40;;;10.80;99.90;;;;;;6311839;22;20433;-94
2022/05/25 04:31:06;;;;;;;5.57;1.27;;;10.80;99.90;;;;;;6312436;22;20013;-94
2022/05/25 04:33:31;;;;;;;4.05;1.52;;;10.70;99.90;;;;;;6339760;22;20037;-94
2022/05/25 04:35:58;;;;;;;2.95;1.58;;;10.70;99.90;;;;;;6313352;22;20595;-94
2022/05/25 04:38:24;;;;;;;6.65;1.77;;;10.80;99.90;;;;;;6323591;22;20029;-91
2022/05/25 04:40:49;;;;;;;3.53;1.20;;;10.80;99.90;;;;;;6324201;22;20017;-94
2022/05/25 04:43:21;;;;;;;4.97;1.63;;;10.80;99.90;;;;;;6345348;22;20026;-93
2022/05/25 04:45:49;;;;;;;8.85;1.60;;;10.70;99.90;;;;;;6314859;22;20031;-94
2022/05/25 04:48:16;;;;;;;3.70;1.70;;;10.70;99.90;;;;;;6315224;22;20003;-94
2022/05/25 04:50:45;;;;;;;6.03;1.90;;;10.80;99.90;;;;;;6314448;22;20036;-92
2022/05/25 04:53:14;;;;;;;2.58;1.20;;;10.80;99.90;;;;;;6313147;22;20015;-94
2022/05/25 04:58:29;;;;;;;4.13;1.40;;;10.80;99.90;;;;;;6341111;22;20014;-95
2022/05/25 05:00:55;;;;;;;3.85;1.52;;;10.80;99.90;;;;;;6340947;22;20003;-94
2022/05/25 05:03:23;;;;;;;5.68;1.50;;;10.80;99.90;;;;;;6312407;22;20006;-93
2022/05/25 05:05:50;;;;;;;3.03;1.77;;;10.80;99.90;;;;;;6339801;22;19999;-93
2022/05/25 05:08:16;;;;;;;5.95;1.70;;;10.80;99.90;;;;;;6312470;22;20029;-93
2022/05/25 05:10:42;;;;;;;10.05;2.10;;;10.80;99.90;;;;;;6340267;22;20481;-93
2022/05/25 05:13:08;;;;;;;6.82;2.15;;;10.80;99.90;;;;;;6313665;22;20011;-95
2022/05/25 05:15:36;;;;;;;5.90;1.40;;;10.80;99.90;;;;;;6313503;22;20422;-91
2022/05/25 05:18:02;;;;;;;12.20;2.08;;;10.80;99.90;;;;;;6313528;22;20010;-92
2022/05/25 05:20:28;;;;;;;4.45;1.77;;;10.90;99.90;;;;;;6327996;22;20032;-92
2022/05/25 05:22:54;;;;;;;8.82;2.10;;;10.90;99.90;;;;;;6355490;22;19998;-94
2022/05/25 05:25:20;;;;;;;6.40;1.90;;;10.90;99.90;;;;;;6313963;22;20002;-94
2022/05/25 05:27:46;;;;;;;9.90;1.90;;;10.90;99.90;;;;;;6340493;22;20012;-94
2022/05/25 05:30:17;;;;;;;7.78;2.35;;;11.00;99.90;;;;;;6311821;22;20010;-94
2022/05/25 05:32:43;;;;;;;5.40;1.98;;;10.90;99.90;;;;;;6313470;22;20101;-89
2022/05/25 05:35:09;;;;;;;5.68;2.00;;;11.00;99.90;;;;;;6312170;22;20076;-92
2022/05/25 05:37:41;;;;;;;7.10;2.28;;;11.00;99.90;;;;;;6311952;22;20013;-92
2022/05/25 05:40:09;;;;;;;9.80;1.55;;;11.00;99.90;;;;;;6311800;22;20078;-92
2022/05/25 05:42:40;;;;;;;3.55;2.00;;;10.90;99.90;;;;;;6311635;22;20007;-95
2022/05/25 05:45:11;;;;;;;5.72;1.90;;;10.90;99.90;;;;;;6309870;22;19998;-93
2022/05/25 05:47:43;;;;;;;4.60;1.90;;;10.90;99.90;;;;;;6310684;22;20030;-93
2022/05/25 05:50:11;;;;;;;9.43;1.73;;;10.90;99.90;;;;;;6310444;22;20063;-93
2022/05/25 05:52:36;;;;;;;4.72;1.75;;;10.90;99.90;;;;;;6311472;22;19999;-91
2022/05/25 05:55:06;;;;;;;5.85;2.58;;;10.90;99.90;;;;;;6311578;22;20033;-92
2022/05/25 05:57:35;;;;;;;4.43;1.30;;;10.90;99.90;;;;;;6312727;22;19999;-92
2022/05/25 06:00:01;;;;;;;5.03;1.98;;;10.90;99.90;;;;;;6311972;22;20042;-90
2022/05/25 06:02:26;;;;;;;7.47;2.10;;;10.90;99.90;;;;;;6325062;22;19987;-91
2022/05/25 06:04:52;;;;;;;6.78;1.75;;;11.00;99.90;;;;;;6320746;22;20353;-92
2022/05/25 06:07:18;;;;;;;6.38;1.60;;;11.00;99.90;;;;;;6321324;22;20025;-91
2022/05/25 06:09:43;;;;;;;8.23;1.42;;;11.00;99.90;;;;;;6340680;22;20026;-92
2022/05/25 06:12:10;;;;;;;6.82;1.38;;;11.00;99.90;;;;;;6310659;22;20014;-91
2022/05/25 06:14:36;;;;;;;4.10;1.75;;;11.10;99.90;;;;;;6309899;22;20067;-93
2022/05/25 06:20:07;;;;;;;4.75;2.42;;;11.10;99.90;;;;;;6247933;23;20008;-93
2022/05/25 06:22:33;;;;;;;4.55;1.33;;;11.20;99.90;;;;;;6243805;23;20035;-91
2022/05/25 06:24:58;;;;;;;9.15;2.00;;;11.10;99.90;;;;;;6245462;23;20008;-93
2022/05/25 06:27:24;;;;;;;6.35;1.35;;;11.10;99.90;;;;;;6245024;23;20442;-94
2022/05/25 06:29:51;;;;;;;5.20;1.63;;;11.20;99.90;;;;;;6245032;23;20008;-92
2022/05/25 06:32:19;;;;;;;8.23;1.63;;;11.20;99.90;;;;;;6244474;23;20012;-94
2022/05/25 06:34:48;;;;;;;5.03;1.80;;;11.20;99.90;;;;;;6245608;23;20173;-91
2022/05/25 06:37:16;;;;;;;6.15;1.60;;;11.20;99.90;;;;;;6244482;23;20047;-91
2022/05/25 06:39:42;;;;;;;3.63;1.02;;;11.30;99.90;;;;;;6244570;23;20012;-94
2022/05/25 06:42:08;;;;;;;7.35;1.50;;;11.30;99.90;;;;;;6245668;23;20012;-94
2022/05/25 06:44:34;;;;;;;4.57;1.13;;;11.40;99.90;;;;;;6247270;23;20419;-94
2022/05/25 06:47:00;;;;;;;5.57;1.40;;;11.50;99.90;;;;;;6247869;23;20004;-94
2022/05/25 06:49:26;;;;;;;10.20;1.80;;;11.60;99.90;;;;;;6251776;23;20039;-94
2022/05/25 06:51:51;;;;;;;5.90;1.15;;;11.70;99.90;;;;;;6316285;22;20034;-95
2022/05/25 06:54:18;;;;;;;6.38;1.40;;;11.80;99.90;;;;;;6312823;22;20450;-93
2022/05/25 06:56:44;;;;;;;4.30;1.17;;;11.90;99.90;;;;;;6312651;22;20003;-91
2022/05/25 06:59:11;;;;;;;4.82;1.23;;;12.00;99.90;;;;;;6315478;22;20063;-91
2022/05/25 07:01:38;;;;;;;7.25;1.30;;;12.10;99.90;;;;;;6318039;22;19998;-95
2022/05/25 07:04:05;;;;;;;2.63;1.05;;;12.10;99.90;;;;;;6318418;22;20032;-95
2022/05/25 07:06:31;;;;;;;6.03;1.15;;;12.10;99.90;;;;;;6317554;22;20011;-95
2022/05/25 07:08:57;;;;;;;9.25;1.23;;;12.10;99.90;;;;;;6323736;22;20026;-94
2022/05/25 07:11:23;;;;;;;6.20;1.30;;;12.20;99.90;;;;;;6318358;22;20333;-94
2022/05/25 07:13:50;;;;;;;3.50;0.95;;;12.20;99.90;;;;;;6316063;22;20019;-94
2022/05/25 07:16:18;;;;;;;6.38;1.10;;;12.20;99.90;;;;;;6317235;22;19999;-94
2022/05/25 07:18:45;;;;;;;4.32;1.20;;;12.20;99.90;;;;;;6315440;22;20011;-92
2022/05/25 07:21:14;;;;;;;5.57;1.08;;;12.20;99.90;;;;;;6314806;22;20003;-93
2022/05/25 07:23:42;;;;;;;3.58;1.00;;;12.20;99.90;;;;;;6318212;22;20421;-92
2022/05/25 07:26:10;;;;;;;1.17;0.73;;;12.20;99.90;;;;;;6323139;22;19995;-92
2022/05/25 07:28:37;;;;;;;3.90;1.20;;;12.20;99.90;;;;;;6332896;22;20007;-91
2022/05/25 07:31:27;;;;;;;5.78;1.10;;;12.20;99.90;;;;;;6325045;22;20002;-95
2022/05/25 07:34:05;;;;;;;6.78;1.00;;;12.20;99.90;;;;;;6327481;22;20036;-94
2022/05/25 07:36:35;;;;;;;3.03;1.08;;;12.20;99.90;;;;;;6330506;22;20013;-94
2022/05/25 07:39:11;;;;;;;5.53;0.98;;;12.30;99.90;;;;;;6326183;22;19995;-93
2022/05/25 07:41:43;;;;;;;6.97;1.17;;;12.30;99.90;;;;;;6329547;22;20010;-95
2022/05/25 07:44:13;;;;;;;6.38;1.20;;;12.30;99.90;;;;;;6322793;22;20030;-94
2022/05/25 07:46:39;;;;;;;2.90;0.90;;;12.30;99.90;;;;;;6320099;22;20013;-93
2022/05/25 07:49:05;;;;;;;3.58;0.90;;;12.20;99.90;;;;;;6316809;22;20433;-93
2022/05/25 07:51:33;;;;;;;3.03;0.95;;;12.10;99.90;;;;;;6313780;22;20337;-93
2022/05/25 07:54:00;;;;;;;3.83;1.35;;;12.10;99.90;;;;;;6317510;22;20017;-95
2022/05/25 07:56:32;;;;;;;4.00;1.25;;;12.10;99.90;;;;;;6315692;22;20022;-93
2022/05/25 07:59:00;;;;;;;4.05;1.10;;;12.00;99.90;;;;;;6313554;22;20071;-94
2022/05/25 08:07:07;;;;;;;4.32;1.15;;;12.00;99.90;;;;;;6343501;22;20026;-92
2022/05/25 08:09:34;;;;;;;;;;;12.00;99.90;;;;;;6288577;22;20011;-92
2022/05/25 08:12:01;;;;;;;2.67;1.15;;;12.00;99.90;;;;;;6317407;22;20229;-95
2022/05/25 08:14:28;;;;;;;4.63;1.10;;;12.00;99.90;;;;;;6315269;22;20030;-93
2022/05/25 08:16:54;;;;;;;5.05;1.30;;;12.00;99.90;;;;;;6310839;22;20010;-93
2022/05/25 08:19:21;;;;;;;2.30;0.75;;;12.00;99.90;;;;;;6312920;22;19998;-90
2022/05/25 08:21:48;;;;;;;5.43;1.67;;;12.00;99.90;;;;;;6310411;22;20018;-94
2022/05/25 08:24:15;;;;;;;4.38;1.10;;;12.00;99.90;;;;;;6313494;22;19998;-94
2022/05/25 08:26:41;;;;;;;6.07;1.20;;;12.10;99.90;;;;;;6314306;22;20006;-93
2022/05/25 08:29:07;;;;;;;4.70;1.20;;;12.10;99.90;;;;;;6314923;22;20002;-95
2022/05/25 08:31:33;;;;;;;2.40;1.02;;;12.20;99.90;;;;;;6313374;22;20029;-93
2022/05/25 08:33:59;;;;;;;3.88;1.17;;;12.20;99.90;;;;;;6314161;22;20064;-93
2022/05/25 08:36:25;;;;;;;3.67;1.27;;;12.30;99.90;;;;;;6314990;22;20030;-94
2022/05/25 08:38:52;;;;;;;3.83;1.40;;;12.40;99.90;;;;;;6341355;22;20009;-94
2022/05/25 08:41:26;;;;;;;3.38;1.10;;;12.50;99.90;;;;;;6314331;22;20019;-93
2022/05/25 08:43:56;;;;;;;3.75;1.15;;;12.50;99.90;;;;;;6317218;22;20002;-93
2022/05/25 08:46:25;;;;;;;4.88;1.27;;;12.70;99.90;;;;;;6314157;22;20006;-92
2022/05/25 08:48:52;;;;;;;2.40;0.70;;;12.80;99.90;;;;;;6343268;22;19999;-95
2022/05/25 08:51:22;;;;;;;2.03;0.77;;;12.80;99.90;;;;;;6315985;22;20006;-94
2022/05/25 08:53:48;;;;;;;2.63;0.93;;;12.90;99.90;;;;;;6314277;22;20011;-94
2022/05/25 08:56:41;;;;;;;2.03;0.95;;;12.90;99.90;;;;;;6314550;22;20009;-91
2022/05/25 08:59:26;;;;;;;5.68;0.88;;;12.90;99.90;;;;;;6316488;22;20023;-93
2022/05/25 09:01:58;;;;;;;6.72;1.10;;;13.00;99.90;;;;;;6316253;22;20066;-92
2022/05/25 09:04:42;;;;;;;2.75;0.75;;;12.90;99.90;;;;;;6315181;22;20027;-93
2022/05/25 09:07:24;;;;;;;4.15;0.90;;;13.00;99.90;;;;;;6315903;22;20650;-94
2022/05/25 09:09:51;;;;;;;2.55;0.73;;;12.90;99.90;;;;;;6343106;22;19999;-93
2022/05/25 09:12:39;;;;;;;2.75;0.95;;;13.00;99.90;;;;;;6318222;22;20006;-93
2022/05/25 09:15:15;;;;;;;2.58;1.08;;;13.00;99.90;;;;;;6312473;22;20010;-92
2022/05/25 09:18:21;;;;;;;1.52;0.60;;;13.10;99.90;;;;;;6343365;22;20009;-93
2022/05/25 09:20:50;;;;;;;1.42;0.80;;;13.10;99.90;;;;;;6315582;22;20003;-93
2022/05/25 09:23:16;;;;;;;4.45;0.80;;;13.20;99.90;;;;;;6313818;22;20061;-94
2022/05/25 09:25:44;;;;;;;1.75;0.65;;;13.20;99.90;;;;;;6314502;22;20490;-92
2022/05/25 09:28:20;;;;;;;3.22;0.85;;;13.30;99.90;;;;;;6313285;22;20077;-91
2022/05/25 09:30:51;;;;;;;2.08;0.70;;;13.30;99.90;;;;;;6312473;22;20021;-91
2022/05/25 09:33:31;;;;;;;;;;;13.30;99.90;;;;;;6314338;22;20014;-96
2022/05/25 09:36:07;;;;;;;2.15;0.70;;;13.30;99.90;;;;;;6312326;22;20345;-92
2022/05/25 09:38:45;;;;;;;1.63;0.47;;;13.40;99.90;;;;;;6314437;22;20155;-94
2022/05/25 09:41:19;;;;;;;1.08;0.63;;;13.40;99.90;;;;;;6314020;22;20023;-94
2022/05/25 09:43:45;;;;;;;1.02;0.70;;;13.50;99.90;;;;;;6313560;22;19999;-94
2022/05/25 09:46:27;;;;;;;3.42;1.05;;;13.50;99.90;;;;;;6313587;22;20010;-95
2022/05/25 09:48:59;;;;;;;1.92;0.75;;;13.50;99.90;;;;;;6314043;22;20003;-92
2022/05/25 09:51:53;;;;;;;1.65;0.50;;;13.60;99.90;;;;;;6313898;22;20018;-92
2022/05/25 09:54:21;;;;;;;2.58;0.70;;;13.60;99.90;;;;;;6298357;22;20011;-93
2022/05/25 09:57:14;;;;;;;2.33;1.67;;;13.50;99.90;;;;;;6313826;22;19999;-91
2022/05/25 10:00:03;;;;;;;5.47;4.95;;;13.50;99.90;;;;;;6340380;22;20003;-91
2022/05/25 10:02:43;;;;;;;2.47;1.20;;;13.50;99.90;;;;;;6325183;22;20036;-94
2022/05/25 10:05:27;;;;;;;1.80;0.60;;;13.50;99.90;;;;;;6322829;22;20041;-93
2022/05/25 10:08:15;;;;;;;1.92;0.70;;;13.50;99.90;;;;;;6315110;22;20345;-93
2022/05/25 10:10:56;;;;;;;1.40;0.70;;;13.50;99.90;;;;;;6313663;22;20066;-92
2022/05/25 10:13:29;;;;;;;2.33;0.60;;;13.60;99.90;;;;;;6315004;22;20089;-93
2022/05/25 10:15:56;;;;;;;1.40;0.52;;;13.60;99.90;;;;;;6316299;22;19999;-94
2022/05/25 10:18:35;;;;;;;14.98;11.07;;;13.60;99.90;;;;;;6333278;22;20003;-90
2022/05/25 10:21:02;;;;;;;9.50;7.47;;;13.60;99.90;;;;;;6323031;22;20441;-92
2022/05/25 10:23:42;;;;;;;7.10;6.40;;;13.60;99.90;;;;;;6321034;22;20010;-93
2022/05/25 10:26:17;;;;;;;5.25;2.88;;;13.60;99.90;;;;;;6318857;22;20018;-95
2022/05/25 10:28:53;;;;;;;1.42;1.30;;;13.70;99.90;;;;;;6318897;22;19999;-93
2022/05/25 10:37:08;;;;;;;0.82;0.50;;;13.90;99.90;;;;;;6352461;22;20061;-93
2022/05/25 10:39:42;;;;;;;0.68;0.68;;;13.90;99.90;;;;;;6321010;22;20007;-91
2022/05/25 10:42:29;;;;;;;3.13;0.50;;;13.90;99.90;;;;;;6316292;22;20018;-92
2022/05/25 10:45:09;;;;;;;0.30;0.30;;;14.00;99.90;;;;;;6342636;22;20006;-94
2022/05/25 10:47:44;;;;;;;0.60;0.28;;;14.20;99.90;;;;;;6314612;22;20065;-92
2022/05/25 10:53:37;;;;;;;1.13;0.40;;;14.60;99.90;;;;;;6293825;22;20080;-90
2022/05/25 10:56:29;;;;;;;0.45;0.30;;;14.80;99.90;;;;;;6283998;22;20039;-90
2022/05/25 10:59:39;;;;;;;0.40;0.20;;;15.10;99.90;;;;;;6281478;22;20018;-91
2022/05/25 11:02:07;;;;;;;0.57;0.28;;;15.30;99.90;;;;;;6282298;22;20011;-91
2022/05/25 11:04:49;;;;;;;0.65;0.30;;;15.60;99.90;;;;;;6283533;22;20094;-92
2022/05/25 11:07:39;;;;;;;0.52;0.40;;;15.70;99.90;;;;;;6303300;22;20078;-91
2022/05/25 11:10:24;;;;;;;2.08;0.40;;;16.00;99.90;;;;;;6312864;22;20099;-94
2022/05/25 11:13:11;;;;;;;0.85;0.10;;;16.00;99.90;;;;;;6314999;22;20006;-91
2022/05/25 11:15:46;;;;;;;0.75;0.65;;;16.20;99.90;;;;;;6314825;22;20021;-91
2022/05/25 11:18:30;;;;;;;1.40;0.60;;;16.40;99.90;;;;;;6314473;22;20449;-91
2022/05/25 11:21:24;;;;;;;2.80;0.40;;;16.40;99.90;;;;;;6314811;22;20099;-92
2022/05/25 11:24:23;;;;;;;0.68;0.38;;;16.30;99.90;;;;;;6314716;22;20007;-92
2022/05/25 11:27:07;;;;;;;0.77;0.40;;;16.30;99.90;;;;;;6314708;22;20456;-92
2022/05/25 11:29:43;;;;;;;1.30;0.50;;;16.30;99.90;;;;;;6314868;22;20037;-94
2022/05/25 11:32:37;;;;;;;1.58;0.47;;;16.20;99.90;;;;;;6341751;22;20088;-92
2022/05/25 11:35:34;;;;;;;2.15;0.57;;;16.20;99.90;;;;;;6315378;22;20353;-93
2022/05/25 11:38:44;;;;;;;1.65;0.30;;;16.20;99.90;;;;;;6314643;22;19999;-92
2022/05/25 11:41:37;;;;;;;4.40;1.33;;;16.10;99.90;;;;;;6281983;22;20010;-92
2022/05/25 11:45:01;;;;;;;5.53;0.90;;;15.90;99.90;;;;;;6323675;22;20087;-96
2022/05/25 11:47:53;;;;;;;1.38;0.98;;;15.70;99.90;;;;;;6249151;22;20008;-94
2022/05/25 11:51:00;;;;;;;3.13;1.25;;;15.60;99.90;;;;;;6226633;23;20005;-95
2022/05/25 11:53:55;;;;;;;6.13;1.92;;;15.60;99.90;;;;;;6224051;23;20399;-94
2022/05/25 11:56:55;;;;;;;5.97;4.00;;;15.40;99.90;;;;;;6201640;23;20015;-94
2022/05/25 11:59:48;;;;;;;6.32;2.97;;;15.20;99.90;;;;;;6226566;23;20001;-94
2022/05/25 12:02:56;;;;;;;4.32;3.67;;;15.10;99.90;;;;;;6222122;23;20011;-94
2022/05/25 12:05:43;;;;;;;4.32;2.92;;;15.00;99.90;;;;;;6223012;23;20008;-96
2022/05/25 12:08:24;;;;;;;6.75;2.33;;;15.00;99.90;;;;;;6229825;23;20012;-94
2022/05/25 12:11:09;;;;;;;4.28;0.93;;;15.00;99.90;;;;;;6223024;23;20000;-93
2022/05/25 12:13:45;;;;;;;1.90;0.90;;;15.00;99.90;;;;;;6220311;23;20019;-96
2022/05/25 12:16:11;;;;;;;4.60;1.02;;;15.10;99.90;;;;;;6227233;23;19996;-95
2022/05/25 12:18:52;;;;;;;2.25;0.80;;;15.10;99.90;;;;;;6224065;23;20093;-94
2022/05/25 12:21:35;;;;;;;2.97;0.95;;;15.10;99.90;;;;;;6222676;23;20015;-92
2022/05/25 12:24:07;;;;;;;4.50;0.82;;;15.10;99.90;;;;;;6319326;22;20038;-94
2022/05/25 12:26:38;;;;;;;4.32;1.15;;;15.20;99.90;;;;;;6321344;22;20006;-94
2022/05/25 12:29:26;;;;;;;;;;;15.10;99.90;;;;;;6314837;22;20026;-95
2022/05/25 12:32:00;;;;;;;6.18;0.88;;;15.00;99.90;;;;;;6315151;22;19934;-94
2022/05/25 12:34:39;;;;;;;3.42;0.90;;;15.00;99.90;;;;;;6313832;22;20011;-95
2022/05/25 12:37:07;;;;;;;3.30;0.90;;;14.90;99.90;;;;;;6316136;22;20007;-95
2022/05/25 12:39:49;;;;;;;4.65;0.75;;;14.80;99.90;;;;;;6314257;22;20018;-95
2022/05/25 12:42:26;;;;;;;7.18;0.88;;;14.80;99.90;;;;;;6316776;22;20017;-95
2022/05/25 12:50:50;;;;;;;2.40;1.03;;;14.90;99.90;;;;;;6339992;22;20024;-93
2022/05/25 12:53:30;;;;;;;2.45;0.63;;;14.90;99.90;;;;;;6339819;22;20283;-94
2022/05/25 12:56:00;;;;;;;4.03;0.50;;;14.90;99.90;;;;;;6340726;22;20037;-95
2022/05/25 12:58:43;;;;;;;2.55;0.90;;;14.90;99.90;;;;;;6341086;22;20010;-94
2022/05/25 13:01:15;;;;;;;2.75;0.55;;;14.90;99.90;;;;;;6343174;22;19998;-94
2022/05/25 13:03:45;;;;;;;2.20;0.70;;;14.90;99.90;;;;;;6344412;22;20002;-93
2022/05/25 13:06:12;;;;;;;5.85;0.70;;;15.00;99.90;;;;;;6344514;22;20006;-93
2022/05/25 13:08:47;;;;;;;2.92;0.50;;;15.00;99.90;;;;;;6343175;22;20013;-93
2022/05/25 13:11:42;;;;;;;4.00;0.77;;;15.10;99.90;;;;;;6343362;22;20089;-94
2022/05/25 13:14:16;;;;;;;0.90;0.55;;;15.20;99.90;;;;;;6344457;22;20045;-95
2022/05/25 13:16:51;;;;;;;3.58;0.65;;;15.30;99.90;;;;;;6343660;22;20429;-93
2022/05/25 13:19:23;;;;;;;2.67;0.73;;;15.40;99.90;;;;;;6344846;22;20031;-95
2022/05/25 13:22:04;;;;;;;1.30;0.40;;;15.40;99.90;;;;;;6343937;22;19998;-93
2022/05/25 13:25:03;;;;;;;3.60;0.60;;;15.50;99.90;;;;;;6344386;22;20432;-93
2022/05/25 13:28:20;;;;;;;4.43;0.60;;;15.60;99.90;;;;;;6353294;22;20059;-94
2022/05/25 13:31:50;;;;;;;1.10;0.45;;;15.60;99.90;;;;;;6360103;22;20003;-94
2022/05/25 13:34:37;;;;;;;1.73;0.60;;;15.70;99.90;;;;;;6358126;22;20010;-92
2022/05/25 13:37:14;;;;;;;0.80;0.43;;;15.80;99.90;;;;;;6358129;22;20009;-92
2022/05/25 13:39:59;;;;;;;3.65;0.52;;;15.90;99.90;;;;;;6360546;22;20002;-93
2022/05/25 13:42:30;;;;;;;2.30;0.52;;;16.00;99.40;;;;;;6356600;22;20058;-92
2022/05/25 13:45:08;;;;;;;2.33;0.60;;;16.00;98.90;;;;;;6357906;22;20073;-92
2022/05/25 13:48:29;;;;;;;;;;;;;;;;;;;;;
2022/05/25 13:51:27;;;;;;;2.85;0.65;;;16.10;98.40;;;;;;6390454;22;19994;-92
2022/05/25 14:12:16;;;;;;;;;;;;;;;;;;;;;
2022/05/25 14:18:50;;;;;;;2.25;0.70;;;16.00;97.60;;;;;;6112544;23;20058;-93